createdAt,value
2022-11-03T00:00:44.190Z,100916.44
2022-11-03T00:01:50.218Z,100922.69
2022-11-03T00:02:52.341Z,100914.72
2022-11-03T00:03:56.798Z,100918.44
2022-11-03T00:05:18.656Z,100930.00
2022-11-03T00:06:23.024Z,100929.22
2022-11-03T00:07:24.804Z,100923.19
2022-11-03T00:08:29.316Z,100921.59
2022-11-03T00:09:33.902Z,100922.53
2022-11-03T00:10:35.695Z,100923.53
2022-11-03T00:11:40.754Z,100927.28
2022-11-03T00:12:42.558Z,100922.09
2022-11-03T00:13:47.288Z,100929.28
2022-11-03T00:14:49.053Z,100938.25
2022-11-03T00:15:53.416Z,100933.00
2022-11-03T00:16:57.873Z,100932.28
2022-11-03T00:17:59.669Z,100933.19
2022-11-03T00:19:04.112Z,100933.25
2022-11-03T00:20:06.444Z,100930.66
2022-11-03T00:21:11.713Z,100940.56
2022-11-03T00:22:13.461Z,100941.66
2022-11-03T00:23:17.841Z,100938.19
2022-11-03T00:24:23.097Z,100938.19
2022-11-03T00:25:24.907Z,100932.94
2022-11-03T00:26:30.251Z,100937.41
2022-11-03T00:27:32.067Z,100941.91
2022-11-03T00:28:36.883Z,100936.59
2022-11-03T00:29:38.670Z,100936.59
2022-11-03T00:30:43.060Z,100937.53
2022-11-03T00:31:47.603Z,100942.84
2022-11-03T00:32:49.397Z,100935.78
2022-11-03T00:33:54.013Z,100935.00
2022-11-03T00:34:56.017Z,100934.22
2022-11-03T00:36:03.551Z,100937.81
2022-11-03T00:37:05.356Z,100943.25
2022-11-03T00:38:09.859Z,100938.88
2022-11-03T00:39:11.745Z,100939.78
2022-11-03T00:40:16.179Z,100941.66
2022-11-03T00:41:18.165Z,100939.91
2022-11-03T00:42:22.533Z,100939.91
2022-11-03T00:43:24.743Z,100938.19
2022-11-03T00:44:29.116Z,100939.13
2022-11-03T00:45:30.907Z,100939.13
2022-11-03T00:46:36.071Z,100940.06
2022-11-03T00:47:58.405Z,100934.03
2022-11-03T00:49:02.770Z,100939.41
2022-11-03T00:50:04.744Z,100932.47
2022-11-03T00:51:13.526Z,100942.31
2022-11-03T00:52:15.312Z,100938.00
2022-11-03T00:53:19.695Z,100940.72
2022-11-03T00:54:24.083Z,100939.13
2022-11-03T00:55:25.846Z,100944.56
2022-11-03T00:56:31.547Z,100948.19
2022-11-03T00:57:33.398Z,100949.22
2022-11-03T00:58:37.791Z,100941.31
2022-11-03T00:59:39.550Z,100950.25
2022-11-03T01:00:43.969Z,100952.97
2022-11-03T01:01:48.547Z,100956.56
2022-11-03T01:02:50.393Z,100954.00
2022-11-03T01:04:08.328Z,100951.34
2022-11-03T01:05:25.217Z,100952.28
2022-11-03T01:06:42.049Z,100953.25
2022-11-03T01:07:46.469Z,100950.66
2022-11-03T01:08:48.421Z,100944.53
2022-11-03T01:09:52.873Z,100950.78
2022-11-03T01:11:18.498Z,100948.19
2022-11-03T01:12:22.854Z,100947.47
2022-11-03T01:13:25.437Z,100952.91
2022-11-03T01:14:31.424Z,100945.00
2022-11-03T01:15:33.294Z,100950.31
2022-11-03T01:16:37.730Z,100953.03
2022-11-03T01:17:39.816Z,100946.97
2022-11-03T01:18:44.169Z,100949.72
2022-11-03T01:19:48.881Z,100948.91
2022-11-03T01:20:56.786Z,100952.53
2022-11-03T01:22:02.119Z,100951.69
2022-11-03T01:23:06.125Z,100951.78
2022-11-03T01:24:10.812Z,100952.78
2022-11-03T01:25:12.586Z,100952.06
2022-11-03T01:26:17.311Z,100962.72
2022-11-03T01:27:22.547Z,100954.88
2022-11-03T01:28:24.329Z,100957.59
2022-11-03T01:29:28.744Z,100960.31
2022-11-03T01:30:30.537Z,100960.34
2022-11-03T01:31:37.655Z,100957.03
2022-11-03T01:32:39.744Z,100950.00
2022-11-03T01:33:45.720Z,100957.22
2022-11-03T01:34:47.561Z,100954.63
2022-11-03T01:35:55.703Z,100956.50
2022-11-03T01:36:57.500Z,100948.59
2022-11-03T01:38:01.962Z,100950.44
2022-11-03T01:39:03.814Z,100955.84
2022-11-03T01:40:08.461Z,100952.44
2022-11-03T01:41:15.050Z,100956.97
2022-11-03T01:42:19.408Z,100957.91
2022-11-03T01:43:22.679Z,100958.81
2022-11-03T01:44:27.440Z,100952.75
2022-11-03T01:45:31.904Z,100951.03
2022-11-03T01:46:34.614Z,100957.31
2022-11-03T01:47:39.038Z,100952.06
2022-11-03T01:48:41.738Z,100953.06
2022-11-03T01:49:59.886Z,100947.06
2022-11-03T01:51:02.234Z,100955.06
2022-11-03T01:52:11.408Z,100951.59
2022-11-03T01:53:13.313Z,100954.44
2022-11-03T01:54:18.476Z,100948.44
2022-11-03T01:55:21.113Z,100952.97
2022-11-03T01:56:25.526Z,100945.16
2022-11-03T01:57:28.670Z,100949.72
2022-11-03T01:58:33.763Z,100946.25
2022-11-03T01:59:35.633Z,100948.91
2022-11-03T02:00:40.899Z,100947.16
2022-11-03T02:01:43.375Z,100943.66
2022-11-03T02:02:47.861Z,100953.28
2022-11-03T02:03:54.274Z,100951.50
2022-11-03T02:04:59.013Z,100942.63
2022-11-03T02:06:00.810Z,100943.50
2022-11-03T02:07:18.658Z,100950.53
2022-11-03T02:08:28.599Z,100943.44
2022-11-03T02:09:32.964Z,100939.00
2022-11-03T02:10:35.177Z,100929.31
2022-11-03T02:11:52.084Z,100939.91
2022-11-03T02:12:56.441Z,100934.63
2022-11-03T02:13:58.193Z,100931.16
2022-11-03T02:15:07.185Z,100935.53
2022-11-03T02:16:08.984Z,100937.25
2022-11-03T02:17:13.856Z,100930.22
2022-11-03T02:18:16.507Z,100936.47
2022-11-03T02:19:27.463Z,100936.47
2022-11-03T02:20:30.224Z,100939.09
2022-11-03T02:21:40.369Z,100937.38
2022-11-03T02:22:49.852Z,100942.69
2022-11-03T02:24:11.037Z,100935.63
2022-11-03T02:25:12.828Z,100933.84
2022-11-03T02:26:17.217Z,100933.91
2022-11-03T02:27:19.590Z,100933.09
2022-11-03T02:28:24.886Z,100930.44
2022-11-03T02:29:26.658Z,100937.47
2022-11-03T02:30:31.093Z,100934.06
2022-11-03T02:31:39.468Z,100927.00
2022-11-03T02:33:01.501Z,100935.88
2022-11-03T02:34:10.038Z,100930.69
2022-11-03T02:35:20.880Z,100931.59
2022-11-03T02:36:26.734Z,100930.69
2022-11-03T02:37:29.402Z,100924.53
2022-11-03T02:38:33.785Z,100935.13
2022-11-03T02:39:37.229Z,100938.69
2022-11-03T02:40:42.194Z,100944.00
2022-11-03T02:41:44.026Z,100937.84
2022-11-03T02:42:49.584Z,100937.84
2022-11-03T02:43:51.403Z,100938.69
2022-11-03T02:44:56.654Z,100944.97
2022-11-03T02:45:58.437Z,100939.66
2022-11-03T02:47:03.913Z,100941.41
2022-11-03T02:48:05.902Z,100943.13
2022-11-03T02:49:10.481Z,100937.84
2022-11-03T02:50:12.241Z,100939.56
2022-11-03T02:51:16.657Z,100946.59
2022-11-03T02:52:33.690Z,100941.34
2022-11-03T02:53:40.155Z,100939.56
2022-11-03T02:54:42.639Z,100939.66
2022-11-03T02:55:59.319Z,100944.09
2022-11-03T02:57:17.421Z,100940.63
2022-11-03T02:58:22.144Z,100946.94
2022-11-03T02:59:27.805Z,100943.44
2022-11-03T03:00:30.059Z,100931.13
2022-11-03T03:01:47.547Z,100938.22
2022-11-03T03:02:52.096Z,100939.16
2022-11-03T03:03:57.350Z,100935.63
2022-11-03T03:05:00.032Z,100941.84
2022-11-03T03:06:06.417Z,100941.84
2022-11-03T03:07:12.361Z,100942.81
2022-11-03T03:08:16.712Z,100952.56
2022-11-03T03:09:19.648Z,100939.38
2022-11-03T03:10:24.766Z,100945.59
2022-11-03T03:11:41.372Z,100939.44
2022-11-03T03:12:44.073Z,100942.19
2022-11-03T03:13:49.163Z,100942.19
2022-11-03T03:14:51.103Z,100942.28
2022-11-03T03:16:08.330Z,100940.56
2022-11-03T03:17:13.024Z,100935.38
2022-11-03T03:18:27.355Z,100938.97
2022-11-03T03:19:29.259Z,100938.19
2022-11-03T03:20:44.968Z,100939.16
2022-11-03T03:21:47.224Z,100939.25
2022-11-03T03:23:11.778Z,100943.78
2022-11-03T03:24:51.929Z,100942.09
2022-11-03T03:26:07.816Z,100944.84
2022-11-03T03:27:12.742Z,100944.94
2022-11-03T03:28:19.082Z,100950.34
2022-11-03T03:29:24.988Z,100945.19
2022-11-03T03:30:29.416Z,100937.28
2022-11-03T03:31:31.520Z,100945.28
2022-11-03T03:32:39.668Z,100947.00
2022-11-03T03:33:43.565Z,100948.75
2022-11-03T03:34:51.555Z,100951.44
2022-11-03T03:35:53.370Z,100947.88
2022-11-03T03:36:58.343Z,100952.31
2022-11-03T03:38:01.873Z,100959.44
2022-11-03T03:39:06.720Z,100961.16
2022-11-03T03:40:12.119Z,100961.16
2022-11-03T03:41:21.908Z,100952.31
2022-11-03T03:42:27.188Z,100961.16
2022-11-03T03:43:29.272Z,100956.72
2022-11-03T03:44:33.663Z,100957.66
2022-11-03T03:45:38.104Z,100964.69
2022-11-03T03:46:41.802Z,100962.13
2022-11-03T03:47:46.204Z,100970.03
2022-11-03T03:48:48.123Z,100964.72
2022-11-03T03:49:52.476Z,100967.38
2022-11-03T03:50:54.271Z,100965.66
2022-11-03T03:51:58.657Z,100969.16
2022-11-03T03:53:00.931Z,100970.88
2022-11-03T03:54:05.316Z,100975.31
2022-11-03T03:55:07.952Z,100970.03
2022-11-03T03:56:12.400Z,100971.75
2022-11-03T03:57:18.082Z,100967.41
2022-11-03T03:58:22.452Z,100973.59
2022-11-03T03:59:24.321Z,100970.97
2022-11-03T04:00:28.708Z,100970.13
2022-11-03T04:01:30.581Z,100971.06
2022-11-03T04:02:35.257Z,100970.13
2022-11-03T04:03:39.691Z,100970.97
2022-11-03T04:04:41.463Z,100964.81
2022-11-03T04:05:46.008Z,100959.53
2022-11-03T04:06:47.821Z,100957.81
2022-11-03T04:07:49.700Z,100970.97
2022-11-03T04:08:54.060Z,100968.41
2022-11-03T04:09:55.920Z,100963.13
2022-11-03T04:11:12.707Z,100957.81
2022-11-03T04:12:29.553Z,100957.81
2022-11-03T04:13:46.789Z,100958.75
2022-11-03T04:15:03.588Z,100964.94
2022-11-03T04:16:29.285Z,100956.19
2022-11-03T04:19:24.439Z,100962.50
2022-11-03T04:20:41.341Z,100966.97
2022-11-03T04:21:58.228Z,100956.50
2022-11-03T04:23:03.079Z,100956.59
2022-11-03T04:24:04.867Z,100958.44
2022-11-03T04:25:09.420Z,100965.53
2022-11-03T04:26:18.441Z,100963.81
2022-11-03T04:27:28.835Z,100970.94
2022-11-03T04:28:30.660Z,100965.75
2022-11-03T04:29:35.067Z,100968.47
2022-11-03T04:30:36.864Z,100967.63
2022-11-03T04:31:41.316Z,100965.94
2022-11-03T04:32:43.726Z,100967.69
2022-11-03T04:33:48.199Z,100971.25
2022-11-03T04:34:49.980Z,100972.16
2022-11-03T04:36:00.882Z,100977.50
2022-11-03T04:37:02.729Z,100973.06
2022-11-03T04:38:10.511Z,100981.00
2022-11-03T04:39:21.178Z,100981.91
2022-11-03T04:40:25.766Z,100979.28
2022-11-03T04:41:31.509Z,100985.50
2022-11-03T04:42:36.002Z,100981.13
2022-11-03T04:43:37.825Z,100979.41
2022-11-03T04:44:42.272Z,100971.44
2022-11-03T04:45:44.763Z,100975.88
2022-11-03T04:46:49.464Z,100976.84
2022-11-03T04:47:51.359Z,100975.09
2022-11-03T04:48:56.399Z,100974.22
2022-11-03T04:49:58.210Z,100983.94
2022-11-03T04:51:03.422Z,100976.00
2022-11-03T04:52:18.208Z,100978.69
2022-11-03T04:53:23.027Z,100978.75
2022-11-03T04:54:24.822Z,100977.88
2022-11-03T04:55:29.464Z,100976.22
2022-11-03T04:56:31.287Z,100974.53
2022-11-03T04:57:35.628Z,100982.50
2022-11-03T04:58:37.470Z,100983.44
2022-11-03T04:59:42.047Z,100979.91
2022-11-03T05:00:43.884Z,100983.50
2022-11-03T05:01:48.494Z,100982.72
2022-11-03T05:02:54.861Z,100980.13
2022-11-03T05:04:00.837Z,100984.59
2022-11-03T05:05:02.705Z,100974.03
2022-11-03T05:06:20.777Z,100981.16
2022-11-03T05:07:28.733Z,100982.97
2022-11-03T05:08:33.100Z,100983.94
2022-11-03T05:09:37.814Z,100990.22
2022-11-03T05:10:44.742Z,100985.00
2022-11-03T05:11:46.681Z,100984.19
2022-11-03T05:12:51.106Z,100984.22
2022-11-03T05:13:55.564Z,100992.19
2022-11-03T05:14:58.751Z,100992.31
2022-11-03T05:16:05.919Z,100988.84
2022-11-03T05:17:21.756Z,100990.66
2022-11-03T05:18:45.672Z,100993.34
2022-11-03T05:19:47.480Z,100992.56
2022-11-03T05:20:56.108Z,100988.25
2022-11-03T05:21:59.186Z,100992.69
2022-11-03T05:23:03.892Z,100989.22
2022-11-03T05:24:11.478Z,100993.63
2022-11-03T05:25:26.380Z,100991.03
2022-11-03T05:26:34.289Z,100992.78
2022-11-03T05:27:36.129Z,101001.59
2022-11-03T05:28:41.070Z,100998.13
2022-11-03T05:29:42.815Z,101002.53
2022-11-03T05:30:47.197Z,101001.69
2022-11-03T05:31:49.135Z,101001.69
2022-11-03T05:32:53.539Z,101000.84
2022-11-03T05:34:01.820Z,100992.97
2022-11-03T05:35:04.283Z,101001.75
2022-11-03T05:36:10.951Z,101001.75
2022-11-03T05:37:15.593Z,101007.03
2022-11-03T05:38:20.081Z,101000.88
2022-11-03T05:39:24.544Z,100999.13
2022-11-03T05:40:29.054Z,101002.59
2022-11-03T05:41:30.914Z,101011.34
2022-11-03T05:42:42.640Z,101003.38
2022-11-03T05:43:44.448Z,101004.25
2022-11-03T05:44:48.851Z,101006.88
2022-11-03T05:45:51.564Z,101007.72
2022-11-03T05:46:56.067Z,101006.81
2022-11-03T05:47:57.853Z,101007.66
2022-11-03T05:49:03.715Z,101008.53
2022-11-03T05:50:13.708Z,101008.53
2022-11-03T05:51:24.097Z,101005.81
2022-11-03T05:52:27.138Z,101008.44
2022-11-03T05:53:35.003Z,101008.44
2022-11-03T05:54:37.486Z,101004.88
2022-11-03T05:55:42.017Z,101008.44
2022-11-03T05:56:47.000Z,101003.06
2022-11-03T05:57:48.906Z,101006.53
2022-11-03T05:58:56.808Z,101009.13
2022-11-03T05:59:59.452Z,101008.19
2022-11-03T06:01:04.045Z,101011.63
2022-11-03T06:02:06.063Z,101010.66
2022-11-03T06:03:10.787Z,101009.72
2022-11-03T06:04:36.927Z,101012.22
2022-11-03T06:05:38.734Z,101011.25
2022-11-03T06:06:43.163Z,101002.31
2022-11-03T06:07:45.088Z,101010.16
2022-11-03T06:08:49.522Z,101012.72
2022-11-03T06:09:52.510Z,101012.63
2022-11-03T06:10:58.440Z,101013.34
2022-11-03T06:12:00.971Z,101015.91
2022-11-03T06:13:07.718Z,101014.88
2022-11-03T06:14:13.588Z,101015.63
2022-11-03T06:15:31.367Z,101004.94
2022-11-03T06:16:33.078Z,101008.28
2022-11-03T06:17:37.605Z,101003.78
2022-11-03T06:18:39.549Z,101003.63
2022-11-03T06:19:45.291Z,100992.00
2022-11-03T06:21:10.131Z,100998.94
2022-11-03T06:22:14.679Z,101001.38
2022-11-03T06:23:19.628Z,101003.06
2022-11-03T06:24:22.361Z,101005.56
2022-11-03T06:25:29.901Z,101000.19
2022-11-03T06:26:31.802Z,101000.94
2022-11-03T06:27:36.982Z,100996.41
2022-11-03T06:30:34.579Z,100994.34
2022-11-03T06:31:36.458Z,101002.16
2022-11-03T06:32:40.806Z,101008.13
2022-11-03T06:33:42.610Z,101003.59
2022-11-03T06:34:47.014Z,101004.38
2022-11-03T06:35:49.450Z,101005.09
2022-11-03T06:36:53.823Z,101017.34
2022-11-03T06:38:01.441Z,101014.50
2022-11-03T06:39:04.512Z,101012.59
2022-11-03T06:40:15.129Z,101008.00
2022-11-03T06:41:27.264Z,101006.97
2022-11-03T06:42:32.396Z,101018.16
2022-11-03T06:43:41.475Z,101011.84
2022-11-03T06:44:47.033Z,101018.75
2022-11-03T06:45:50.049Z,101017.66
2022-11-03T06:46:54.982Z,101013.97
2022-11-03T06:47:56.738Z,101016.47
2022-11-03T06:49:05.805Z,101012.78
2022-11-03T06:50:21.063Z,101016.94
2022-11-03T06:51:25.996Z,101014.06
2022-11-03T06:52:29.234Z,101014.75
2022-11-03T06:53:36.825Z,101009.28
2022-11-03T06:54:40.441Z,101013.47
2022-11-03T06:55:44.825Z,101009.78
2022-11-03T06:56:49.448Z,101013.13
2022-11-03T06:57:55.805Z,101006.81
2022-11-03T06:59:00.140Z,101007.47
2022-11-03T07:00:20.502Z,101005.63
2022-11-03T07:01:30.657Z,101008.94
2022-11-03T07:02:33.597Z,101005.25
2022-11-03T07:03:39.074Z,101006.88
2022-11-03T07:04:40.993Z,101003.16
2022-11-03T07:05:45.450Z,101004.03
2022-11-03T07:06:53.329Z,101008.22
2022-11-03T07:07:56.521Z,101012.41
2022-11-03T07:09:05.053Z,101001.69
2022-11-03T07:10:07.116Z,101008.59
2022-11-03T07:11:17.412Z,101007.63
2022-11-03T07:12:19.260Z,101001.31
2022-11-03T07:13:26.328Z,101009.91
2022-11-03T07:14:31.325Z,101007.03
2022-11-03T07:15:33.825Z,101010.44
2022-11-03T07:16:38.550Z,101015.63
2022-11-03T07:17:40.320Z,101014.59
2022-11-03T07:18:44.831Z,101008.31
2022-11-03T07:19:46.668Z,101011.66
2022-11-03T07:20:51.134Z,101021.44
2022-11-03T07:21:53.694Z,101014.19
2022-11-03T07:22:58.189Z,101021.25
2022-11-03T07:24:03.165Z,101014.00
2022-11-03T07:25:06.511Z,101018.31
2022-11-03T07:26:10.853Z,101013.88
2022-11-03T07:27:12.580Z,101021.78
2022-11-03T07:28:17.041Z,101018.06
2022-11-03T07:29:23.957Z,101010.81
2022-11-03T07:30:29.940Z,101015.13
2022-11-03T07:31:34.365Z,101022.00
2022-11-03T07:32:36.140Z,101016.47
2022-11-03T07:33:40.546Z,101015.41
2022-11-03T07:34:42.400Z,101013.44
2022-11-03T07:36:13.657Z,101004.50
2022-11-03T07:38:36.941Z,101018.09
2022-11-03T07:39:41.353Z,101017.97
2022-11-03T07:40:43.107Z,101014.19
2022-11-03T07:41:48.519Z,101017.56
2022-11-03T07:42:50.663Z,101016.50
2022-11-03T07:43:58.820Z,101017.22
2022-11-03T07:45:03.270Z,101013.41
2022-11-03T07:46:05.398Z,101018.59
2022-11-03T07:47:13.548Z,101023.72
2022-11-03T07:48:22.266Z,101023.63
2022-11-03T07:49:30.685Z,101034.94
2022-11-03T07:50:32.552Z,101026.84
2022-11-03T07:51:37.897Z,101028.41
2022-11-03T07:52:40.118Z,101026.41
2022-11-03T07:53:50.848Z,101033.31
2022-11-03T07:54:53.744Z,101033.88
2022-11-03T07:55:58.566Z,101038.09
2022-11-03T07:57:13.776Z,101029.88
2022-11-03T07:58:20.137Z,101032.31
2022-11-03T07:59:35.811Z,101040.94
2022-11-03T08:00:37.595Z,101041.59
2022-11-03T08:01:45.638Z,101042.41
2022-11-03T08:02:49.202Z,101040.53
2022-11-03T08:03:53.636Z,101037.78
2022-11-03T08:04:55.443Z,101049.31
2022-11-03T08:05:59.812Z,101050.19
2022-11-03T08:07:04.212Z,101048.94
2022-11-03T08:08:06.485Z,101051.22
2022-11-03T08:09:11.164Z,101053.63
2022-11-03T08:10:13.862Z,101054.47
2022-11-03T08:11:18.688Z,101050.81
2022-11-03T08:12:23.617Z,101055.16
2022-11-03T08:13:25.386Z,101058.63
2022-11-03T08:14:31.621Z,101070.22
2022-11-03T08:15:33.680Z,101059.44
2022-11-03T08:16:38.042Z,101067.28
2022-11-03T08:17:39.860Z,101071.28
2022-11-03T08:18:44.235Z,101064.09
2022-11-03T08:19:48.642Z,101071.88
2022-11-03T08:20:50.524Z,101072.41
2022-11-03T08:21:54.938Z,101065.94
2022-11-03T08:23:20.116Z,101070.41
2022-11-03T08:24:21.073Z,101072.81
2022-11-03T08:25:22.912Z,101077.88
2022-11-03T08:26:27.407Z,101082.03
2022-11-03T08:27:29.238Z,101076.63
2022-11-03T08:28:33.745Z,101081.72
2022-11-03T08:29:35.620Z,101084.47
2022-11-03T08:30:40.224Z,101089.66
2022-11-03T08:31:44.602Z,101083.19
2022-11-03T08:32:46.670Z,101089.47
2022-11-03T08:33:51.055Z,101085.75
2022-11-03T08:34:52.892Z,101082.88
2022-11-03T08:35:57.277Z,101083.72
2022-11-03T08:36:59.055Z,101083.34
2022-11-03T08:38:03.705Z,101082.31
2022-11-03T08:39:08.344Z,101088.19
2022-11-03T08:40:10.459Z,101092.44
2022-11-03T08:41:14.914Z,101090.41
2022-11-03T08:42:16.704Z,101093.75
2022-11-03T08:43:21.075Z,101092.66
2022-11-03T08:44:22.974Z,101089.78
2022-11-03T08:45:27.397Z,101093.03
2022-11-03T08:46:31.797Z,101095.50
2022-11-03T08:47:33.638Z,101093.50
2022-11-03T08:48:38.007Z,101093.41
2022-11-03T08:49:39.772Z,101098.75
2022-11-03T08:50:44.142Z,101100.34
2022-11-03T08:51:46.802Z,101107.25
2022-11-03T08:52:51.291Z,101098.13
2022-11-03T08:53:55.929Z,101110.22
2022-11-03T08:56:22.888Z,101099.03
2022-11-03T08:57:24.843Z,101107.69
2022-11-03T08:58:29.629Z,101111.81
2022-11-03T08:59:34.030Z,101105.28
2022-11-03T09:00:41.191Z,101108.53
2022-11-03T09:01:45.015Z,101106.50
2022-11-03T09:02:49.582Z,101111.50
2022-11-03T09:03:54.134Z,101115.66
2022-11-03T09:04:56.009Z,101109.09
2022-11-03T09:06:00.448Z,101116.00
2022-11-03T09:07:02.246Z,101110.50
2022-11-03T09:10:55.806Z,101110.38
2022-11-03T09:11:57.780Z,101114.66
2022-11-03T09:13:02.290Z,101113.53
2022-11-03T09:14:06.745Z,101116.03
2022-11-03T09:15:11.710Z,101119.66
2022-11-03T09:16:13.534Z,101116.72
2022-11-03T09:17:17.964Z,101122.75
2022-11-03T09:18:19.810Z,101123.47
2022-11-03T09:19:24.437Z,101116.03
2022-11-03T09:20:30.250Z,101109.63
2022-11-03T09:21:32.072Z,101118.25
2022-11-03T09:22:36.488Z,101122.66
2022-11-03T09:23:41.000Z,101122.47
2022-11-03T09:24:46.207Z,101124.13
2022-11-03T09:25:50.614Z,101114.09
2022-11-03T09:26:59.484Z,101117.44
2022-11-03T09:28:06.980Z,101117.19
2022-11-03T09:29:09.062Z,101119.00
2022-11-03T09:30:14.568Z,101118.91
2022-11-03T09:31:19.653Z,101115.28
2022-11-03T09:32:23.469Z,101126.00
2022-11-03T09:33:28.249Z,101122.16
2022-11-03T09:34:32.738Z,101119.41
2022-11-03T09:35:37.174Z,101117.50
2022-11-03T09:36:39.103Z,101114.75
2022-11-03T09:37:43.754Z,101110.25
2022-11-03T09:38:45.637Z,101110.94
2022-11-03T09:39:50.154Z,101109.03
2022-11-03T09:40:52.005Z,101111.50
2022-11-03T09:41:59.353Z,101109.63
2022-11-03T09:43:04.092Z,101119.19
2022-11-03T09:44:08.677Z,101102.97
2022-11-03T09:45:10.590Z,101114.50
2022-11-03T09:46:15.732Z,101109.84
2022-11-03T09:47:47.172Z,101112.25
2022-11-03T09:48:49.001Z,101111.00
2022-11-03T09:49:53.481Z,101108.13
2022-11-03T09:50:58.174Z,101117.72
2022-11-03T09:52:00.784Z,101105.97
2022-11-03T09:53:05.523Z,101112.84
2022-11-03T09:54:10.171Z,101108.34
2022-11-03T09:55:18.600Z,101109.88
2022-11-03T09:56:22.399Z,101113.13
2022-11-03T09:57:28.280Z,101100.50
2022-11-03T09:58:30.153Z,101096.69
2022-11-03T09:59:35.291Z,101100.06
2022-11-03T10:00:37.108Z,101096.22
2022-11-03T10:01:42.137Z,101092.47
2022-11-03T10:02:46.725Z,101091.34
2022-11-03T10:03:48.531Z,101096.44
2022-11-03T10:04:53.195Z,101097.09
2022-11-03T10:05:55.080Z,101098.44
2022-11-03T10:06:59.581Z,101099.19
2022-11-03T10:08:03.349Z,101100.84
2022-11-03T10:09:08.472Z,101094.41
2022-11-03T10:10:17.777Z,101096.91
2022-11-03T10:11:22.191Z,101100.16
2022-11-03T10:12:26.852Z,101091.91
2022-11-03T10:13:33.286Z,101091.63
2022-11-03T10:14:38.262Z,101087.69
2022-11-03T10:15:42.730Z,101090.94
2022-11-03T10:16:49.432Z,101087.41
2022-11-03T10:17:57.073Z,101094.38
2022-11-03T10:19:00.627Z,101089.03
2022-11-03T10:20:05.088Z,101088.81
2022-11-03T10:21:16.752Z,101081.63
2022-11-03T10:22:23.782Z,101076.16
2022-11-03T10:23:28.245Z,101073.28
2022-11-03T10:24:32.738Z,101073.97
2022-11-03T10:25:38.776Z,101081.00
2022-11-03T10:26:47.720Z,101080.91
2022-11-03T10:27:52.142Z,101078.22
2022-11-03T10:29:00.669Z,101079.00
2022-11-03T10:30:07.559Z,101086.09
2022-11-03T10:31:22.396Z,101079.75
2022-11-03T10:32:30.619Z,101084.94
2022-11-03T10:33:35.052Z,101083.97
2022-11-03T10:34:41.241Z,101080.34
2022-11-03T10:35:43.157Z,101080.09
2022-11-03T10:36:50.536Z,101084.31
2022-11-03T10:37:52.627Z,101077.03
2022-11-03T10:38:57.294Z,101082.31
2022-11-03T10:40:01.776Z,101082.94
2022-11-03T10:41:10.472Z,101070.28
2022-11-03T10:42:22.454Z,101074.59
2022-11-03T10:43:24.359Z,101075.25
2022-11-03T10:44:29.260Z,101075.25
2022-11-03T10:45:31.055Z,101070.53
2022-11-03T10:46:49.525Z,101071.19
2022-11-03T10:48:04.497Z,101065.63
2022-11-03T10:49:08.603Z,101070.56
2022-11-03T10:50:33.303Z,101065.00
2022-11-03T10:51:35.256Z,101065.94
2022-11-03T10:52:39.694Z,101065.00
2022-11-03T10:53:42.856Z,101067.56
2022-11-03T10:54:48.227Z,101070.34
2022-11-03T10:55:52.674Z,101062.41
2022-11-03T10:56:57.105Z,101058.97
2022-11-03T10:58:02.245Z,101059.63
2022-11-03T10:59:06.664Z,101062.09
2022-11-03T11:00:12.956Z,101055.56
2022-11-03T11:01:17.668Z,101059.00
2022-11-03T11:02:26.845Z,101057.09
2022-11-03T11:03:28.806Z,101050.06
2022-11-03T11:04:34.776Z,101052.88
2022-11-03T11:05:39.238Z,101047.28
2022-11-03T11:06:41.045Z,101059.56
2022-11-03T11:07:46.309Z,101044.22
2022-11-03T11:08:48.894Z,101046.81
2022-11-03T11:09:53.434Z,101055.63
2022-11-03T11:10:55.324Z,101050.97
2022-11-03T11:12:09.267Z,101050.88
2022-11-03T11:13:26.593Z,101047.22
2022-11-03T11:14:28.409Z,101043.59
2022-11-03T11:15:40.688Z,101041.56
2022-11-03T11:16:52.664Z,101038.75
2022-11-03T11:17:54.537Z,101041.44
2022-11-03T11:18:58.930Z,101040.34
2022-11-03T11:20:21.598Z,101043.69
2022-11-03T11:21:28.095Z,101035.31
2022-11-03T11:22:34.024Z,101036.81
2022-11-03T11:23:35.799Z,101026.81
2022-11-03T11:24:46.312Z,101033.59
2022-11-03T11:26:09.123Z,101035.84
2022-11-03T11:27:32.720Z,101026.59
2022-11-03T11:28:37.452Z,101020.78
2022-11-03T11:29:39.322Z,101030.47
2022-11-03T11:30:43.707Z,101023.78
2022-11-03T11:31:57.345Z,101019.19
2022-11-03T11:32:59.975Z,101018.94
2022-11-03T11:34:17.182Z,101017.53
2022-11-03T11:35:41.719Z,101024.38
2022-11-03T11:36:48.419Z,101011.47
2022-11-03T11:37:50.317Z,101017.50
2022-11-03T11:38:55.618Z,101014.47
2022-11-03T11:40:00.124Z,101010.59
2022-11-03T11:41:02.004Z,101012.31
2022-11-03T11:42:13.365Z,101004.47
2022-11-03T11:43:25.476Z,101006.28
2022-11-03T11:44:42.204Z,101014.34
2022-11-03T11:46:05.570Z,101008.38
2022-11-03T11:47:28.542Z,101003.94
2022-11-03T11:48:33.011Z,101003.19
2022-11-03T11:49:34.932Z,100995.34
2022-11-03T11:50:39.740Z,101012.56
2022-11-03T11:51:41.599Z,101001.19
2022-11-03T11:53:05.156Z,101011.31
2022-11-03T11:54:18.165Z,101001.84
2022-11-03T11:55:20.488Z,100993.00
2022-11-03T11:56:24.953Z,100998.38
2022-11-03T11:57:26.795Z,100995.69
2022-11-03T11:58:38.584Z,100992.06
2022-11-03T11:59:40.398Z,100993.38
2022-11-03T12:00:53.148Z,100993.25
2022-11-03T12:01:58.982Z,100989.59
2022-11-03T12:03:04.224Z,100992.72
2022-11-03T12:05:23.803Z,100990.69
2022-11-03T12:06:41.673Z,100986.69
2022-11-03T12:07:43.593Z,100987.34
2022-11-03T12:08:48.012Z,100978.19
2022-11-03T12:09:49.848Z,100978.00
2022-11-03T12:10:57.995Z,100986.66
2022-11-03T12:12:08.578Z,100980.56
2022-11-03T12:13:30.740Z,100978.50
2022-11-03T12:14:38.485Z,100982.69
2022-11-03T12:15:51.353Z,100972.59
2022-11-03T12:16:56.080Z,100979.22
2022-11-03T12:17:57.902Z,100978.03
2022-11-03T12:19:21.133Z,100977.78
2022-11-03T12:20:38.553Z,100975.72
2022-11-03T12:21:47.490Z,100972.72
2022-11-03T12:22:51.956Z,100966.00
2022-11-03T12:23:56.519Z,100968.38
2022-11-03T12:25:01.288Z,100963.53
2022-11-03T12:26:04.400Z,100960.38
2022-11-03T12:27:29.254Z,100966.16
2022-11-03T12:28:37.670Z,100967.41
2022-11-03T12:29:39.708Z,100960.69
2022-11-03T12:30:44.225Z,100967.56
2022-11-03T12:31:47.284Z,100976.41
2022-11-03T12:32:52.156Z,100966.25
2022-11-03T12:33:56.691Z,100963.19
2022-11-03T12:34:58.513Z,100972.25
2022-11-03T12:36:02.943Z,100967.97
2022-11-03T12:37:04.861Z,100961.47
2022-11-03T12:38:09.393Z,100961.25
2022-11-03T12:39:11.402Z,100952.09
2022-11-03T12:40:16.414Z,100962.75
2022-11-03T12:41:26.697Z,100963.59
2022-11-03T12:42:28.503Z,100959.31